Time;durP1;ratioP1;P1;durP2;ratioP2;P2;SDS_P1;SDS_P2;PMS_P1;PMS_P2;Temp;Humidity;BMP_temperature;BMP_pressure;BME280_temperature;BME280_humidity;BME280_pressure;Samples;Min_cycle;Max_cycle;Signal;HPM_P1;HPM_P2
2022/04/07 00:00:28;;;;;;;5.05;2.67;;;;;;;-141.50;100.00;63355.56;5105027;28;20083;-78
2022/04/07 00:02:54;;;;;;;5.30;2.28;;;;;;;-141.50;100.00;63355.56;5105761;28;20097;-78
2022/04/07 00:05:21;;;;;;;6.13;2.40;;;;;;;-141.50;100.00;63355.56;5105609;28;20052;-79
2022/04/07 00:07:48;;;;;;;6.45;2.67;;;;;;;-141.50;100.00;63355.56;5104407;28;20620;-78
2022/04/07 00:10:15;;;;;;;7.72;2.70;;;;;;;-141.50;100.00;63355.56;5108573;28;20112;-77
2022/04/07 00:12:42;;;;;;;9.15;2.80;;;;;;;-141.50;100.00;63355.56;5114961;28;20070;-78
2022/04/07 00:15:11;;;;;;;5.45;2.38;;;;;;;-141.50;100.00;63355.56;5123159;28;20074;-79
2022/04/07 00:17:38;;;;;;;4.13;2.42;;;;;;;-141.50;100.00;63355.56;5126546;28;20566;-78
2022/04/07 00:20:06;;;;;;;6.43;2.60;;;;;;;-141.50;100.00;63355.56;5128494;28;20196;-78
2022/04/07 00:22:34;;;;;;;8.98;2.75;;;;;;;-141.50;100.00;63355.56;5131486;28;20104;-79
2022/04/07 00:25:02;;;;;;;8.25;3.05;;;;;;;-141.50;100.00;63355.56;5128383;28;20042;-77
2022/04/07 00:27:29;;;;;;;5.95;2.25;;;;;;;-141.50;100.00;63355.56;5130838;28;20135;-78
2022/04/07 00:29:56;;;;;;;4.80;2.70;;;;;;;-141.50;100.00;63355.56;5132798;28;20074;-78
2022/04/07 00:32:26;;;;;;;5.18;2.20;;;;;;;-141.50;100.00;63355.56;5134319;28;20043;-80
2022/04/07 00:34:54;;;;;;;5.35;2.22;;;;;;;-141.50;100.00;63355.56;5117643;28;20048;-80
2022/04/07 00:37:25;;;;;;;5.68;2.40;;;;;;;-141.50;100.00;63355.56;5136456;28;20116;-78
2022/04/07 00:39:52;;;;;;;4.93;2.20;;;;;;;-141.50;100.00;63355.56;5136877;28;20107;-79
2022/04/07 00:42:19;;;;;;;6.10;2.45;;;;;;;-141.50;100.00;63355.56;5136160;28;20068;-79
2022/04/07 00:44:46;;;;;;;3.78;2.10;;;;;;;-141.50;100.00;63355.56;5135182;28;20039;-77
2022/04/07 00:47:12;;;;;;;5.78;2.00;;;;;;;-141.50;100.00;63355.56;5133175;28;20043;-79
2022/04/07 00:49:39;;;;;;;6.97;2.25;;;;;;;-141.50;100.00;63355.56;5129465;28;20043;-78
2022/04/07 00:52:07;;;;;;;4.40;2.28;;;;;;;-141.50;100.00;63355.56;5134449;28;20073;-78
2022/04/07 00:54:36;;;;;;;7.50;2.40;;;;;;;-141.50;100.00;63355.56;5135007;28;20047;-79
2022/04/07 00:57:03;;;;;;;6.60;1.98;;;;;;;-141.50;100.00;63355.56;5127863;27;20055;-80
2022/04/07 00:59:34;;;;;;;4.68;2.10;;;;;;;-141.50;100.00;63355.56;5097727;28;20040;-79
2022/04/07 01:02:00;;;;;;;5.07;2.10;;;;;;;-141.50;100.00;63355.56;5114347;28;20043;-79
2022/04/07 01:04:27;;;;;;;5.95;2.30;;;;;;;-141.50;100.00;63355.56;5113496;28;20036;-77
2022/04/07 01:06:54;;;;;;;7.35;2.00;;;;;;;-141.50;100.00;63355.56;5113721;28;20065;-80
2022/04/07 01:09:21;;;;;;;6.72;2.20;;;;;;;-141.50;100.00;63355.56;5096777;28;20052;-77
2022/04/07 01:11:50;;;;;;;6.45;2.30;;;;;;;-141.50;100.00;63355.56;5125902;28;20035;-77
2022/04/07 01:14:17;;;;;;;5.18;2.13;;;;;;;-141.50;100.00;63355.56;5133120;28;20063;-78
2022/04/07 01:16:44;;;;;;;5.75;2.42;;;;;;;-141.50;100.00;63355.56;5113430;28;20043;-78
2022/04/07 01:19:11;;;;;;;6.38;2.30;;;;;;;-141.50;100.00;63355.56;5134366;28;20051;-78
2022/04/07 01:21:37;;;;;;;8.27;2.00;;;;;;;-141.50;100.00;63355.56;5134087;28;20043;-79
2022/04/07 01:24:08;;;;;;;5.63;2.42;;;;;;;-141.50;100.00;63355.56;5134671;28;20047;-77
2022/04/07 01:26:46;;;;;;;4.38;2.13;;;;;;;-141.50;100.00;63355.56;5135445;28;20062;-78
2022/04/07 01:29:14;;;;;;;8.15;2.70;;;;;;;-141.50;100.00;63355.56;5135167;28;20035;-78
2022/04/07 01:31:42;;;;;;;5.43;2.40;;;;;;;-141.50;100.00;63355.56;5134151;28;20043;-78
2022/04/07 01:34:12;;;;;;;4.15;1.90;;;;;;;-141.50;100.00;63355.56;5116437;28;20063;-78
2022/04/07 01:36:41;;;;;;;4.90;2.03;;;;;;;-141.50;100.00;63355.56;5135539;28;20042;-79
2022/04/07 01:39:09;;;;;;;6.45;2.38;;;;;;;-141.50;100.00;63355.56;5134428;28;20043;-79
2022/04/07 01:41:38;;;;;;;6.40;2.50;;;;;;;-141.50;100.00;63355.56;5134906;28;20087;-80
2022/04/07 01:44:06;;;;;;;4.70;2.13;;;;;;;-141.50;100.00;63355.56;5134524;28;20058;-77
2022/04/07 01:46:34;;;;;;;5.32;2.30;;;;;;;-141.50;100.00;63355.56;5133334;28;20061;-78
2022/04/07 01:49:02;;;;;;;5.20;2.20;;;;;;;-141.50;100.00;63355.56;5134637;28;20044;-78
2022/04/07 01:51:29;;;;;;;6.13;2.40;;;;;;;-141.50;100.00;63355.56;5133608;28;20043;-77
2022/04/07 01:53:59;;;;;;;8.35;2.78;;;;;;;-141.50;100.00;63355.56;5134160;28;20109;-79
2022/04/07 01:56:27;;;;;;;3.60;2.10;;;;;;;-141.50;100.00;63355.56;5135293;28;20035;-77
2022/04/07 01:58:54;;;;;;;7.70;2.10;;;;;;;-141.50;100.00;63355.56;5134819;28;20036;-79
2022/04/07 02:01:21;;;;;;;6.10;2.00;;;;;;;-141.50;100.00;63355.56;5134096;28;20047;-80
2022/04/07 02:03:48;;;;;;;6.05;2.45;;;;;;;-141.50;100.00;63355.56;5115119;28;20100;-78
2022/04/07 02:06:17;;;;;;;5.35;2.15;;;;;;;-141.50;100.00;63355.56;5134667;28;20043;-79
2022/04/07 02:08:44;;;;;;;7.25;2.53;;;;;;;-141.50;100.00;63355.56;5136122;28;20069;-78
2022/04/07 02:11:12;;;;;;;6.05;2.50;;;;;;;-141.50;100.00;63355.56;5128656;28;20051;-78
2022/04/07 02:13:40;;;;;;;5.43;2.47;;;;;;;-141.50;100.00;63355.56;5130702;28;20051;-79
2022/04/07 02:16:08;;;;;;;7.60;2.60;;;;;;;-141.50;100.00;63355.56;5134311;28;20419;-78
2022/04/07 02:18:37;;;;;;;6.90;2.20;;;;;;;-141.50;100.00;63355.56;5133831;28;20039;-79
2022/04/07 02:21:04;;;;;;;7.63;2.67;;;;;;;-141.50;100.00;63355.56;5132397;28;20052;-79
2022/04/07 02:23:34;;;;;;;4.25;2.17;;;;;;;-141.50;100.00;63355.56;5129887;28;20073;-78
2022/04/07 02:26:01;;;;;;;7.28;2.30;;;;;;;-141.50;100.00;63355.56;5132139;28;20132;-76
2022/04/07 02:28:27;;;;;;;5.70;2.72;;;;;;;-141.50;100.00;63355.56;5134317;28;20077;-76
2022/04/07 02:30:54;;;;;;;7.47;2.47;;;;;;;-141.50;100.00;63355.56;5132568;28;20134;-78
2022/04/07 02:33:21;;;;;;;6.72;2.17;;;;;;;-141.50;100.00;63355.56;5109957;28;20054;-76
2022/04/07 02:35:48;;;;;;;6.35;2.78;;;;;;;-141.50;100.00;63355.56;5124975;28;20058;-77
2022/04/07 02:38:15;;;;;;;7.78;2.60;;;;;;;-141.50;100.00;63355.56;5124796;28;20092;-77
2022/04/07 02:40:42;;;;;;;6.45;2.67;;;;;;;-141.50;100.00;63355.56;5126275;28;20085;-77
2022/04/07 02:43:08;;;;;;;8.32;2.63;;;;;;;-141.50;100.00;63355.56;5123687;28;20051;-78
2022/04/07 02:45:35;;;;;;;5.78;2.50;;;;;;;-141.50;100.00;63355.56;5124069;28;20054;-78
2022/04/07 02:48:01;;;;;;;7.43;2.88;;;;;;;-141.50;100.00;63355.56;5122898;28;20079;-78
2022/04/07 02:50:28;;;;;;;7.90;2.92;;;;;;;-141.50;100.00;63355.56;5124144;28;20073;-78
2022/04/07 02:52:54;;;;;;;4.93;2.55;;;;;;;-141.50;100.00;63355.56;5123100;28;20066;-78
2022/04/07 02:55:22;;;;;;;7.30;2.83;;;;;;;-141.50;100.00;63355.56;5126765;28;20051;-76
2022/04/07 02:57:48;;;;;;;7.20;2.38;;;;;;;-141.50;100.00;63355.56;5124885;28;20128;-77
2022/04/07 03:00:15;;;;;;;6.63;2.88;;;;;;;-141.50;100.00;63355.56;5125147;28;20082;-78
2022/04/07 03:02:42;;;;;;;7.50;2.97;;;;;;;-141.50;100.00;63355.56;5125954;28;20043;-78
2022/04/07 03:05:09;;;;;;;5.22;2.70;;;;;;;-141.50;100.00;63355.56;5123155;28;20048;-77
2022/04/07 03:07:36;;;;;;;9.82;2.83;;;;;;;-141.50;100.00;63355.56;5124922;28;20052;-77
2022/04/07 03:10:03;;;;;;;7.20;3.03;;;;;;;-141.50;100.00;63355.56;5121576;28;20194;-78
2022/04/07 03:12:29;;;;;;;7.22;2.95;;;;;;;-141.50;100.00;63355.56;5114462;28;20052;-78
2022/04/07 03:14:56;;;;;;;5.53;2.65;;;;;;;-141.50;100.00;63355.56;5125323;28;20067;-78
2022/04/07 03:17:22;;;;;;;4.57;2.35;;;;;;;-141.50;100.00;63355.56;5121424;28;20047;-78
2022/04/07 03:19:49;;;;;;;6.38;2.53;;;;;;;-141.50;100.00;63355.56;5122304;28;20051;-76
2022/04/07 03:22:18;;;;;;;6.20;2.75;;;;;;;-141.50;100.00;63355.56;5121311;28;20055;-79
2022/04/07 03:24:46;;;;;;;5.95;2.53;;;;;;;-141.50;100.00;63355.56;5122420;28;20048;-77
2022/04/07 03:27:12;;;;;;;6.20;2.60;;;;;;;-141.50;100.00;63355.56;5105453;28;20079;-77
2022/04/07 03:29:39;;;;;;;5.93;2.53;;;;;;;-141.50;100.00;63355.56;5104403;28;20558;-77
2022/04/07 03:32:06;;;;;;;5.68;2.42;;;;;;;-141.50;100.00;63355.56;5119334;28;20051;-77
2022/04/07 03:34:39;;;;;;;5.15;2.50;;;;;;;-141.50;100.00;63355.56;5104860;28;20043;-78
2022/04/07 03:37:06;;;;;;;5.15;2.60;;;;;;;-141.50;100.00;63355.56;5096191;28;20048;-78
2022/04/07 03:39:33;;;;;;;5.32;2.47;;;;;;;-141.50;100.00;63355.56;5096969;28;20048;-79
2022/04/07 03:42:00;;;;;;;4.28;2.47;;;;;;;-141.50;100.00;63355.56;5099569;28;20051;-77
2022/04/07 03:44:27;;;;;;;4.53;2.50;;;;;;;-141.50;100.00;63355.56;5105107;28;20101;-78
2022/04/07 03:46:53;;;;;;;5.95;2.67;;;;;;;-141.50;100.00;63355.56;5103435;28;20060;-79
2022/04/07 03:49:20;;;;;;;4.40;2.35;;;;;;;-141.50;100.00;63355.56;5097185;28;20106;-78
2022/04/07 03:51:47;;;;;;;4.60;2.53;;;;;;;-141.50;100.00;63355.56;5098027;28;20052;-78
2022/04/07 03:54:14;;;;;;;7.15;2.10;;;;;;;-141.50;100.00;63355.56;5097206;28;20107;-77
2022/04/07 03:56:41;;;;;;;4.80;2.20;;;;;;;-141.50;100.00;63355.56;5100301;28;20047;-76
2022/04/07 03:59:07;;;;;;;6.03;2.13;;;;;;;-141.50;100.00;63355.56;5097592;28;20067;-77
2022/04/07 04:01:35;;;;;;;3.88;2.00;;;;;;;-141.50;100.00;63355.56;5097110;28;20047;-76
2022/04/07 04:04:01;;;;;;;4.40;2.00;;;;;;;-141.50;100.00;63355.56;5101771;28;20627;-77
2022/04/07 04:06:28;;;;;;;4.35;2.25;;;;;;;-141.50;100.00;63355.56;5110781;28;20105;-78
2022/04/07 04:08:55;;;;;;;3.90;1.90;;;;;;;-141.50;100.00;63355.56;5103942;28;20109;-77
2022/04/07 04:11:21;;;;;;;6.43;2.25;;;;;;;-141.50;100.00;63355.56;5109363;28;20067;-77
2022/04/07 04:13:48;;;;;;;5.18;2.60;;;;;;;-141.50;100.00;63355.56;5122163;28;20059;-77
2022/04/07 04:16:17;;;;;;;4.07;2.08;;;;;;;-141.50;100.00;63355.56;5123317;28;20051;-77
2022/04/07 04:18:45;;;;;;;3.08;2.00;;;;;;;-141.50;100.00;63355.56;5123673;28;20119;-78
2022/04/07 04:21:12;;;;;;;5.20;2.08;;;;;;;-141.50;100.00;63355.56;5122507;28;20047;-77
2022/04/07 04:23:40;;;;;;;7.65;2.20;;;;;;;-141.50;100.00;63355.56;5124692;28;20040;-78
2022/04/07 04:26:06;;;;;;;5.43;2.20;;;;;;;-141.50;100.00;63355.56;5125819;28;20051;-77
2022/04/07 04:28:33;;;;;;;5.10;2.15;;;;;;;-141.50;100.00;63355.56;5133430;28;20061;-78
2022/04/07 04:31:00;;;;;;;5.10;2.00;;;;;;;-141.50;100.00;63355.56;5134346;28;20050;-75
2022/04/07 04:33:26;;;;;;;3.40;2.08;;;;;;;-141.50;100.00;63355.56;5122824;28;20075;-78
2022/04/07 04:35:57;;;;;;;2.85;1.80;;;;;;;-141.50;100.00;63355.56;5111411;28;20086;-77
2022/04/07 04:38:24;;;;;;;4.53;2.05;;;;;;;-141.50;100.00;63355.56;5111658;28;20048;-77
2022/04/07 04:40:50;;;;;;;5.18;1.60;;;;;;;-141.50;100.00;63355.56;5109689;28;20047;-78
2022/04/07 04:43:17;;;;;;;6.03;1.92;;;;;;;-141.50;100.00;63355.56;5110017;28;20052;-77
2022/04/07 04:45:43;;;;;;;5.15;2.00;;;;;;;-141.50;100.00;63355.56;5107124;28;20044;-78
2022/04/07 04:48:10;;;;;;;2.42;1.40;;;;;;;-141.50;100.00;63355.56;5108025;28;20483;-77
2022/04/07 04:50:36;;;;;;;4.15;1.80;;;;;;;-141.50;100.00;63355.56;5106848;28;20047;-78
2022/04/07 04:53:03;;;;;;;4.68;2.10;;;;;;;-141.50;100.00;63355.56;5105063;28;20485;-78
2022/04/07 04:55:30;;;;;;;2.58;1.60;;;;;;;-141.50;100.00;63355.56;5103850;28;20040;-76
2022/04/07 04:57:56;;;;;;;3.28;1.67;;;;;;;-141.50;100.00;63355.56;5102609;28;20044;-78
2022/04/07 05:00:23;;;;;;;2.53;1.67;;;;;;;-141.50;100.00;63355.56;5100817;28;20082;-79
2022/04/07 05:02:49;;;;;;;3.35;1.85;;;;;;;-141.50;100.00;63355.56;5099546;28;20075;-76
2022/04/07 05:05:16;;;;;;;3.10;1.88;;;;;;;-141.50;100.00;63355.56;5100201;28;20040;-77
2022/04/07 05:07:43;;;;;;;2.47;1.85;;;;;;;-141.50;100.00;63355.56;5100899;28;20048;-78
2022/04/07 05:10:09;;;;;;;4.05;1.73;;;;;;;-141.50;100.00;63355.56;5105042;28;20052;-77
2022/04/07 05:12:36;;;;;;;6.25;2.20;;;;;;;-141.50;100.00;63355.56;5110861;28;20104;-78
2022/04/07 05:15:03;;;;;;;4.07;1.90;;;;;;;-141.50;100.00;63355.56;5120366;28;20082;-78
2022/04/07 05:17:29;;;;;;;5.68;1.90;;;;;;;-141.50;100.00;63355.56;5102675;28;20048;-79
2022/04/07 05:19:56;;;;;;;4.93;2.05;;;;;;;-141.50;100.00;63355.56;5119700;28;20113;-79
2022/04/07 05:22:23;;;;;;;3.63;1.90;;;;;;;-141.50;100.00;63355.56;5120083;28;20055;-77
2022/04/07 05:24:50;;;;;;;5.53;1.75;;;;;;;-141.50;100.00;63355.56;5116560;28;20055;-77
2022/04/07 05:27:17;;;;;;;3.95;1.75;;;;;;;-141.50;100.00;63355.56;5097167;28;20056;-77
2022/04/07 05:29:44;;;;;;;9.25;1.80;;;;;;;-141.50;100.00;63355.56;5110164;28;20056;-77
2022/04/07 05:32:10;;;;;;;2.72;1.65;;;;;;;-141.50;100.00;63355.56;5097151;28;20090;-78
2022/04/07 05:34:37;;;;;;;3.72;1.48;;;;;;;-141.50;100.00;63355.56;5099127;28;20060;-79
2022/04/07 05:37:03;;;;;;;2.85;1.58;;;;;;;-141.50;100.00;63355.56;5099191;28;20040;-78
2022/04/07 05:39:30;;;;;;;4.63;1.80;;;;;;;-141.50;100.00;63355.56;5112212;28;20108;-79
2022/04/07 05:41:56;;;;;;;2.28;1.35;;;;;;;-141.50;100.00;63355.56;5117555;28;20047;-78
2022/04/07 05:44:23;;;;;;;7.88;1.67;;;;;;;-141.50;100.00;63355.56;5118659;28;20447;-78
2022/04/07 05:46:51;;;;;;;2.50;1.45;;;;;;;-141.50;100.00;63355.56;5116082;28;20052;-77
2022/04/07 05:49:18;;;;;;;2.38;1.27;;;;;;;-141.50;100.00;63355.56;5104560;28;20044;-79
2022/04/07 05:51:45;;;;;;;2.58;1.40;;;;;;;-141.50;100.00;63355.56;5112795;28;20131;-78
2022/04/07 05:54:16;;;;;;;2.42;1.15;;;;;;;-141.50;100.00;63355.56;5114205;28;20036;-79
2022/04/07 05:56:42;;;;;;;3.83;1.35;;;;;;;-141.50;100.00;63355.56;5096693;28;20056;-77
2022/04/07 05:59:09;;;;;;;6.63;1.20;;;;;;;-141.50;100.00;63355.56;5096978;28;20109;-79
2022/04/07 06:01:35;;;;;;;3.83;1.30;;;;;;;-141.50;100.00;63355.56;5097353;28;20111;-78
2022/04/07 06:04:02;;;;;;;5.47;1.40;;;;;;;-141.50;100.00;63355.56;5093091;28;20381;-78
2022/04/07 06:06:28;;;;;;;3.78;1.52;;;;;;;-141.50;100.00;63355.56;5110548;28;20698;-78
2022/04/07 06:08:55;;;;;;;3.00;1.20;;;;;;;-141.50;100.00;63355.56;5118135;28;20171;-78
2022/04/07 06:11:21;;;;;;;2.20;1.10;;;;;;;-141.50;100.00;63355.56;5109657;28;20101;-78
2022/04/07 06:13:48;;;;;;;2.00;1.20;;;;;;;-141.50;100.00;63355.56;5108502;28;20080;-78
2022/04/07 06:16:14;;;;;;;2.63;1.02;;;;;;;-141.50;100.00;63355.56;5112864;28;20051;-78
2022/04/07 06:18:41;;;;;;;3.92;1.10;;;;;;;-141.50;100.00;63355.56;5118406;28;20048;-78
2022/04/07 06:21:07;;;;;;;1.60;1.30;;;;;;;-141.50;100.00;63355.56;5114879;28;20044;-78
2022/04/07 06:23:34;;;;;;;2.38;1.30;;;;;;;-141.50;100.00;63355.56;5117802;28;20491;-79
2022/04/07 06:26:00;;;;;;;1.50;1.10;;;;;;;-141.50;100.00;63355.56;5114263;28;20569;-77
2022/04/07 06:28:27;;;;;;;5.22;1.10;;;;;;;-141.50;100.00;63355.56;5096630;28;20058;-78
2022/04/07 06:30:54;;;;;;;1.65;1.10;;;;;;;-141.50;100.00;63355.56;5078554;28;20044;-78
2022/04/07 06:33:21;;;;;;;1.38;0.90;;;;;;;-141.50;100.00;63355.56;5092316;28;20048;-78
2022/04/07 06:35:51;;;;;;;2.28;1.00;;;;;;;-141.50;100.00;63355.56;5099255;28;20040;-78
2022/04/07 06:38:18;;;;;;;3.53;1.05;;;;;;;-141.50;100.00;63355.56;5097198;28;20048;-78
2022/04/07 06:40:45;;;;;;;1.48;1.00;;;;;;;-141.50;100.00;63355.56;5091165;28;20135;-78
2022/04/07 06:43:11;;;;;;;2.08;1.05;;;;;;;-141.50;100.00;63355.56;5094936;28;20072;-79
2022/04/07 06:45:38;;;;;;;3.22;0.90;;;;;;;-141.50;100.00;63355.56;5097906;28;20052;-79
2022/04/07 06:48:05;;;;;;;1.95;1.00;;;;;;;-141.50;100.00;63355.56;5094986;28;20754;-78
2022/04/07 06:50:32;;;;;;;0.93;0.73;;;;;;;-141.50;100.00;63355.56;5093095;28;20559;-76
2022/04/07 06:53:00;;;;;;;4.20;0.85;;;;;;;-141.50;100.00;63355.56;5074523;28;20052;-79
2022/04/07 06:55:28;;;;;;;3.55;1.10;;;;;;;-141.50;100.00;63355.56;5095576;28;20079;-78
2022/04/07 06:57:56;;;;;;;4.13;0.90;;;;;;;-141.50;100.00;63355.56;5092939;28;20044;-77
2022/04/07 07:00:24;;;;;;;1.20;1.00;;;;;;;-141.50;100.00;63355.56;5091738;28;20101;-78
2022/04/07 07:02:53;;;;;;;1.65;0.75;;;;;;;-141.50;100.00;63355.56;5095363;28;20086;-78
2022/04/07 07:05:21;;;;;;;4.25;1.13;;;;;;;-141.50;100.00;63355.56;5078800;28;20118;-77
2022/04/07 07:07:48;;;;;;;1.48;0.73;;;;;;;-141.50;100.00;63355.56;5082489;28;20055;-77
2022/04/07 07:10:28;;;;;;;3.35;0.98;;;;;;;-141.50;100.00;63355.56;5106887;28;20104;-79
2022/04/07 07:12:54;;;;;;;1.35;0.85;;;;;;;-141.50;100.00;63355.56;5104247;28;20051;-77
2022/04/07 07:15:21;;;;;;;3.63;1.00;;;;;;;-141.50;100.00;63355.56;5094188;28;20043;-77
2022/04/07 07:17:51;;;;;;;2.90;1.10;;;;;;;-141.50;100.00;63355.56;5096236;28;20059;-78
2022/04/07 07:20:20;;;;;;;1.77;0.65;;;;;;;-141.50;100.00;63355.56;5097167;28;20044;-77
2022/04/07 07:22:47;;;;;;;2.15;0.60;;;;;;;-141.50;100.00;63355.56;5089361;28;20043;-76
2022/04/07 07:25:14;;;;;;;0.98;0.50;;;;;;;-141.50;100.00;63355.56;5115284;28;20048;-77
2022/04/07 07:27:43;;;;;;;2.67;0.80;;;;;;;-141.50;100.00;63355.56;5113243;28;20112;-76
2022/04/07 07:30:12;;;;;;;1.15;0.70;;;;;;;-141.50;100.00;63355.56;5113485;28;20485;-77
2022/04/07 07:32:40;;;;;;;2.28;0.90;;;;;;;-141.50;100.00;63355.56;5095896;28;20071;-77
2022/04/07 07:35:08;;;;;;;1.27;0.68;;;;;;;-141.50;100.00;63355.56;5090724;28;20051;-77
2022/04/07 07:37:35;;;;;;;1.40;0.60;;;;;;;-141.50;100.00;63355.56;5091417;28;20062;-78
2022/04/07 07:40:06;;;;;;;1.23;0.50;;;;;;;-141.50;100.00;63355.56;5098386;28;20074;-79
2022/04/07 07:42:33;;;;;;;2.47;0.43;;;;;;;-141.50;100.00;63355.56;5096203;28;20135;-78
2022/04/07 07:44:59;;;;;;;1.55;0.45;;;;;;;-141.50;100.00;63355.56;5103566;28;20222;-78
2022/04/07 07:47:26;;;;;;;2.45;0.50;;;;;;;-141.50;100.00;63355.56;5113383;28;20082;-77
2022/04/07 07:49:53;;;;;;;0.80;0.50;;;;;;;-141.50;100.00;63355.56;5116473;28;20047;-77
2022/04/07 07:52:19;;;;;;;1.00;0.40;;;;;;;-141.50;100.00;63355.56;5105987;28;20078;-76
2022/04/07 07:54:46;;;;;;;0.90;0.47;;;;;;;-141.50;100.00;63355.56;5110626;28;20294;-76
2022/04/07 07:57:12;;;;;;;1.90;0.60;;;;;;;-141.50;100.00;63355.56;5115947;28;20052;-76
2022/04/07 07:59:39;;;;;;;1.38;0.60;;;;;;;-141.50;100.00;63355.56;5100692;28;20044;-79
2022/04/07 08:02:06;;;;;;;1.05;0.57;;;;;;;-141.50;100.00;63355.56;5112541;28;20047;-77
2022/04/07 08:04:32;;;;;;;2.72;0.60;;;;;;;-141.50;100.00;63355.56;5118182;28;20107;-78
2022/04/07 08:06:59;;;;;;;2.03;0.70;;;;;;;-141.50;100.00;63355.56;5119323;28;20071;-76
2022/04/07 08:09:25;;;;;;;2.42;0.60;;;;;;;-141.50;100.00;63355.56;5116702;28;20078;-76
2022/04/07 08:11:52;;;;;;;3.83;0.60;;;;;;;-141.50;100.00;63355.56;5102738;28;20105;-76
2022/04/07 08:14:18;;;;;;;0.70;0.50;;;;;;;-141.50;100.00;63355.56;5113857;28;20067;-77
2022/04/07 08:16:45;;;;;;;3.55;0.52;;;;;;;-141.50;100.00;63355.56;5118583;28;20401;-77
2022/04/07 08:19:11;;;;;;;3.72;0.65;;;;;;;-141.50;100.00;63355.56;5112839;28;20100;-76
2022/04/07 08:21:38;;;;;;;0.95;0.50;;;;;;;-141.50;100.00;63355.56;5109758;28;20048;-75
2022/04/07 08:24:06;;;;;;;1.60;0.65;;;;;;;-141.50;100.00;63355.56;5096872;28;20357;-78
2022/04/07 08:26:32;;;;;;;1.40;0.50;;;;;;;-141.50;100.00;63355.56;5099371;28;20071;-76
2022/04/07 08:28:59;;;;;;;0.43;0.30;;;;;;;-141.50;100.00;63355.56;5092842;28;20071;-76
2022/04/07 08:31:25;;;;;;;0.70;0.50;;;;;;;-141.50;100.00;63355.56;5092204;28;20068;-78
2022/04/07 08:33:52;;;;;;;0.88;0.50;;;;;;;-141.50;100.00;63355.56;5090120;28;20577;-78
2022/04/07 08:36:19;;;;;;;1.13;0.50;;;;;;;-141.50;100.00;63355.56;5113248;28;20039;-77
2022/04/07 08:38:46;;;;;;;1.02;0.50;;;;;;;-141.50;100.00;63355.56;5124672;28;20058;-76
2022/04/07 08:41:13;;;;;;;2.92;0.60;;;;;;;-141.50;100.00;63355.56;5114158;28;20059;-77
2022/04/07 08:43:40;;;;;;;3.30;0.45;;;;;;;-141.50;100.00;63355.56;5096667;28;20081;-76
2022/04/07 08:46:08;;;;;;;1.35;0.50;;;;;;;-141.50;100.00;63355.56;5116807;28;20066;-77
2022/04/07 08:48:42;;;;;;;0.70;0.40;;;;;;;-141.50;100.00;63355.56;5093755;28;20471;-77
2022/04/07 08:51:10;;;;;;;1.52;0.43;;;;;;;-141.50;100.00;63355.56;5093565;28;20151;-77
2022/04/07 08:53:38;;;;;;;1.00;0.40;;;;;;;-141.50;100.00;63355.56;5093084;28;20351;-77
2022/04/07 08:56:07;;;;;;;1.30;0.40;;;;;;;-141.50;100.00;63355.56;5101035;28;20117;-77
2022/04/07 08:58:34;;;;;;;1.17;0.40;;;;;;;-141.50;100.00;63355.56;5073811;28;20055;-77
2022/04/07 09:01:00;;;;;;;1.67;0.45;;;;;;;-141.50;100.00;63355.56;5094162;28;20076;-76
2022/04/07 09:03:27;;;;;;;1.85;0.50;;;;;;;-141.50;100.00;63355.56;5093337;28;20538;-75
2022/04/07 09:05:59;;;;;;;0.63;0.40;;;;;;;-141.50;100.00;63355.56;5093079;28;20410;-75
2022/04/07 09:08:33;;;;;;;0.82;0.45;;;;;;;-141.50;100.00;63355.56;5091596;28;20074;-76
2022/04/07 09:11:02;;;;;;;0.80;0.30;;;;;;;-141.50;100.00;63355.56;5113287;28;20051;-78
2022/04/07 09:13:41;;;;;;;1.33;0.40;;;;;;;-141.50;100.00;63355.56;5103058;28;20054;-78
2022/04/07 09:16:15;;;;;;;0.88;0.40;;;;;;;-141.50;100.00;63355.56;5097527;28;20051;-77
2022/04/07 09:18:44;;;;;;;1.77;0.50;;;;;;;-141.50;100.00;63355.56;5092981;28;20128;-77
2022/04/07 09:21:37;;;;;;;3.05;0.38;;;;;;;-141.50;100.00;63355.56;5090024;28;20052;-78
2022/04/07 09:24:07;;;;;;;3.35;0.40;;;;;;;-141.50;100.00;63355.56;5087903;28;20135;-76
2022/04/07 09:26:35;;;;;;;0.65;0.30;;;;;;;-141.50;100.00;63355.56;5091309;28;20218;-77
2022/04/07 09:29:12;;;;;;;0.75;0.40;;;;;;;-141.50;100.00;63355.56;5090365;28;20101;-77
2022/04/07 09:31:40;;;;;;;1.98;0.50;;;;;;;-141.50;100.00;63355.56;5089858;28;20076;-77
2022/04/07 09:34:07;;;;;;;4.25;0.75;;;;;;;-141.50;100.00;63355.56;5089248;28;20070;-77
2022/04/07 09:36:34;;;;;;;1.15;0.40;;;;;;;-141.50;100.00;63355.56;5072915;28;20076;-76
2022/04/07 09:39:02;;;;;;;1.17;0.50;;;;;;;-141.50;100.00;63355.56;5089924;28;20048;-76
2022/04/07 09:41:30;;;;;;;1.02;0.40;;;;;;;-141.50;100.00;63355.56;5089766;28;20428;-77
2022/04/07 09:43:59;;;;;;;2.78;0.60;;;;;;;-141.50;100.00;63355.56;5072200;28;20044;-77
2022/04/07 09:46:38;;;;;;;2.20;0.40;;;;;;;-141.50;100.00;63355.56;5098246;28;20039;-76
2022/04/07 09:49:10;;;;;;;4.68;0.40;;;;;;;-141.50;100.00;63355.56;5099508;28;20146;-78
2022/04/07 09:51:46;;;;;;;4.10;0.30;;;;;;;-141.50;100.00;63355.56;5090407;28;20094;-77
2022/04/07 09:54:17;;;;;;;0.63;0.35;;;;;;;-141.50;100.00;63355.56;5072304;28;20108;-77
2022/04/07 09:56:47;;;;;;;3.25;0.50;;;;;;;-141.50;100.00;63355.56;5088784;28;20162;-78
2022/04/07 09:59:18;;;;;;;1.95;0.40;;;;;;;-141.50;100.00;63355.56;5082420;28;20056;-78
2022/04/07 10:01:44;;;;;;;0.60;0.30;;;;;;;-141.50;100.00;63355.56;5097205;28;20060;-77
2022/04/07 10:04:11;;;;;;;0.50;0.30;;;;;;;-141.50;100.00;63355.56;5093728;28;20082;-77
2022/04/07 10:06:38;;;;;;;0.55;0.30;;;;;;;-141.50;100.00;63355.56;5094252;28;20063;-78
2022/04/07 10:09:08;;;;;;;1.13;0.30;;;;;;;-141.50;100.00;63355.56;5092661;28;20060;-78
2022/04/07 10:11:36;;;;;;;1.90;0.47;;;;;;;-141.50;100.00;63355.56;5099465;28;20414;-77
2022/04/07 10:14:03;;;;;;;1.35;0.32;;;;;;;-141.50;100.00;63355.56;5110906;28;20063;-76
2022/04/07 10:16:45;;;;;;;0.60;0.30;;;;;;;-141.50;100.00;63355.56;5113031;28;20055;-77
2022/04/07 10:19:34;;;;;;;0.93;0.55;;;;;;;-141.50;100.00;63355.56;5112909;28;20058;-76
2022/04/07 10:22:28;;;;;;;1.20;0.20;;;;;;;-141.50;100.00;63355.56;5111328;28;20395;-78
2022/04/07 10:25:02;;;;;;;1.10;0.43;;;;;;;-141.50;100.00;63355.56;5111477;28;20048;-77
2022/04/07 10:27:35;;;;;;;4.70;0.30;;;;;;;-141.50;100.00;63355.56;5107719;28;20111;-78
2022/04/07 10:30:06;;;;;;;4.35;0.38;;;;;;;-141.50;100.00;63355.56;5090330;28;20060;-77
2022/04/07 10:32:36;;;;;;;2.28;0.30;;;;;;;-141.50;100.00;63355.56;5093017;28;20055;-77
2022/04/07 10:35:04;;;;;;;3.03;0.82;;;;;;;-141.50;100.00;63355.56;5090164;28;20126;-75
2022/04/07 10:37:43;;;;;;;1.35;0.30;;;;;;;-141.50;100.00;63355.56;5090069;28;20044;-77
2022/04/07 10:40:31;;;;;;;1.60;0.30;;;;;;;-141.50;100.00;63355.56;5091495;28;20076;-78
2022/04/07 10:43:05;;;;;;;2.67;0.30;;;;;;;-141.50;100.00;63355.56;5090954;28;20113;-77
2022/04/07 10:45:36;;;;;;;2.63;0.32;;;;;;;-141.50;100.00;63355.56;5090843;28;20068;-77
2022/04/07 10:48:31;;;;;;;2.13;0.30;;;;;;;-141.50;100.00;63355.56;5089550;28;20090;-77
2022/04/07 10:51:01;;;;;;;1.30;0.30;;;;;;;-141.50;100.00;63355.56;5089085;28;20099;-78
2022/04/07 10:53:35;;;;;;;0.40;0.38;;;;;;;-141.50;100.00;63355.56;5091178;28;20060;-78
2022/04/07 10:56:32;;;;;;;1.38;0.25;;;;;;;-141.50;100.00;63355.56;5091969;28;20048;-78
2022/04/07 10:59:17;;;;;;;2.72;0.38;;;;;;;-141.50;100.00;63355.56;5090762;28;20159;-76
2022/04/07 11:01:44;;;;;;;1.20;0.30;;;;;;;-141.50;100.00;63355.56;5089914;28;20044;-78
2022/04/07 11:04:20;;;;;;;3.00;0.25;;;;;;;-141.50;100.00;63355.56;5089905;28;20130;-77
2022/04/07 11:07:02;;;;;;;2.97;0.30;;;;;;;-141.50;100.00;63355.56;5095755;28;20446;-79
2022/04/07 11:09:53;;;;;;;1.25;0.20;;;;;;;-141.50;100.00;63355.56;5108359;28;20054;-77
2022/04/07 11:12:29;;;;;;;0.68;0.30;;;;;;;-141.50;100.00;63355.56;5095500;28;20048;-78
2022/04/07 11:15:01;;;;;;;2.35;0.30;;;;;;;-141.50;100.00;63355.56;5090935;28;20116;-77